Time;durP1;ratioP1;P1;durP2;ratioP2;P2;SDS_P1;SDS_P2;PMS_P1;PMS_P2;Temp;Humidity;BMP_temperature;BMP_pressure;BME280_temperature;BME280_humidity;BME280_pressure;Samples;Min_cycle;Max_cycle;Signal;HPM_P1;HPM_P2
2022/03/10 00:00:06;;;;;;;121.93;65.43;;;25.60;2073.60;;;;;;5018046;28;20060;-84
2022/03/10 00:02:32;;;;;;;123.03;64.38;;;25.60;2073.60;;;;;;5015379;28;20072;-84
2022/03/10 00:04:58;;;;;;;110.10;59.25;;;25.70;2073.60;;;;;;5013803;28;20058;-83
2022/03/10 00:07:24;;;;;;;89.00;43.78;;;25.60;2099.20;;;;;;5013751;28;20069;-81
2022/03/10 00:09:49;;;;;;;98.38;50.35;;;25.60;2099.20;;;;;;5015697;28;20036;-85
2022/03/10 00:12:15;;;;;;;109.80;52.97;;;25.60;2099.20;;;;;;5014457;28;20022;-84
2022/03/10 00:14:42;;;;;;;109.13;58.50;;;0.90;2099.20;;;;;;5016584;28;20478;-85
2022/03/10 00:17:08;;;;;;;77.25;39.97;;;25.60;2124.80;;;;;;5013825;28;20061;-86
2022/03/10 00:19:34;;;;;;;100.40;48.55;;;0.90;2201.60;;;;;;5047857;28;20060;-88
2022/03/10 00:22:00;;;;;;;101.00;52.03;;;25.60;2201.60;;;;;;5049365;28;20022;-89
2022/03/10 00:24:25;;;;;;;108.25;53.10;;;0.90;2201.60;;;;;;5013826;28;20026;-83
2022/03/10 00:26:51;;;;;;;108.35;58.08;;;25.60;2201.60;;;;;;5015697;28;20033;-85
2022/03/10 00:29:17;;;;;;;98.20;51.22;;;0.90;2201.60;;;;;;5010433;28;20026;-86
2022/03/10 00:31:42;;;;;;;110.40;56.83;;;0.90;2201.60;;;;;;5017473;28;20493;-88
2022/03/10 00:34:09;;;;;;;101.57;53.83;;;0.90;2201.60;;;;;;5012188;28;20062;-81
2022/03/10 00:36:35;;;;;;;98.82;50.22;;;25.60;2201.60;;;;;;5012126;28;20022;-87
2022/03/10 00:39:01;;;;;;;100.43;51.38;;;25.60;2201.60;;;;;;5016158;28;20026;-84
2022/03/10 00:41:27;;;;;;;103.65;53.35;;;25.60;2201.60;;;;;;5016471;28;20022;-84
2022/03/10 00:43:53;;;;;;;90.95;44.45;;;25.70;2201.60;;;;;;5042973;28;20026;-82
2022/03/10 00:46:18;;;;;;;77.47;42.13;;;25.70;2201.60;;;;;;5013239;28;20041;-84
2022/03/10 00:48:44;;;;;;;94.82;46.28;;;25.70;2201.60;;;;;;5014572;28;20022;-81
2022/03/10 00:51:10;;;;;;;98.05;54.95;;;25.80;2201.60;;;;;;5010160;28;20029;-83
2022/03/10 00:53:35;;;;;;;108.88;51.20;;;25.80;2201.60;;;;;;5012722;28;20052;-84
2022/03/10 00:56:03;;;;;;;103.55;53.10;;;25.80;2201.60;;;;;;5016851;28;20022;-81
2022/03/10 00:58:28;;;;;;;109.85;57.10;;;25.90;2201.60;;;;;;5013494;28;20033;-85
2022/03/10 01:00:55;;;;;;;102.53;52.78;;;25.90;2201.60;;;;;;5011522;28;20030;-80
2022/03/10 01:03:20;;;;;;;102.25;54.78;;;25.90;2201.60;;;;;;5007022;28;20060;-81
2022/03/10 01:05:47;;;;;;;107.68;53.40;;;25.90;2201.60;;;;;;5012775;28;20029;-80
2022/03/10 01:08:13;;;;;;;105.35;52.80;;;25.90;2201.60;;;;;;5009508;28;20033;-84
2022/03/10 01:10:39;;;;;;;102.45;51.53;;;26.00;2201.60;;;;;;5013354;28;20032;-83
2022/03/10 01:13:12;;;;;;;100.35;54.17;;;26.00;2201.60;;;;;;5013637;28;20030;-78
2022/03/10 01:15:38;;;;;;;86.85;47.92;;;26.10;2201.60;;;;;;5013378;28;20092;-79
2022/03/10 01:18:04;;;;;;;85.63;44.25;;;26.10;2201.60;;;;;;5013120;28;20480;-82
2022/03/10 01:20:29;;;;;;;91.85;50.72;;;26.00;2201.60;;;;;;5012211;28;20029;-81
2022/03/10 01:22:55;;;;;;;94.10;46.58;;;26.00;2201.60;;;;;;5012065;28;20400;-81
2022/03/10 01:25:21;;;;;;;79.82;39.15;;;26.00;2201.60;;;;;;5010743;28;20075;-84
2022/03/10 01:27:47;;;;;;;78.85;40.65;;;25.90;2201.60;;;;;;5012004;28;20038;-80
2022/03/10 01:30:13;;;;;;;80.35;45.30;;;25.90;2201.60;;;;;;5011411;28;20037;-80
2022/03/10 01:32:40;;;;;;;62.38;31.27;;;25.90;2201.60;;;;;;5011311;28;20029;-82
2022/03/10 01:35:06;;;;;;;79.95;38.58;;;25.80;2201.60;;;;;;5009732;28;20500;-81
2022/03/10 01:37:37;;;;;;;73.35;36.90;;;25.70;2201.60;;;;;;5011819;28;20073;-83
2022/03/10 01:40:08;;;;;;;100.68;43.60;;;25.60;2201.60;;;;;;5011062;28;20041;-82
2022/03/10 01:42:35;;;;;;;80.35;44.60;;;25.60;2201.60;;;;;;5005888;28;20466;-83
2022/03/10 01:45:01;;;;;;;88.43;47.17;;;25.60;2201.60;;;;;;5011781;28;20034;-84
2022/03/10 01:47:27;;;;;;;90.95;45.25;;;25.60;2201.60;;;;;;5010688;28;20038;-81
2022/03/10 01:49:52;;;;;;;82.55;39.83;;;25.60;2201.60;;;;;;5010560;28;20080;-82
2022/03/10 01:52:20;;;;;;;97.75;44.72;;;25.60;2201.60;;;;;;5012186;28;20075;-80
2022/03/10 01:54:46;;;;;;;98.35;45.63;;;25.60;2201.60;;;;;;5011713;28;20104;-82
2022/03/10 01:57:12;;;;;;;96.07;48.03;;;25.60;2201.60;;;;;;5011997;28;20095;-80
2022/03/10 01:59:39;;;;;;;102.15;47.65;;;25.70;2201.60;;;;;;5010918;28;20424;-84
2022/03/10 02:02:06;;;;;;;108.78;53.15;;;25.70;2201.60;;;;;;5011653;28;20022;-78
2022/03/10 02:04:32;;;;;;;113.40;52.78;;;25.70;2201.60;;;;;;5011204;28;20120;-80
2022/03/10 02:06:58;;;;;;;120.32;52.47;;;25.70;2201.60;;;;;;5012248;28;20058;-84
2022/03/10 02:12:08;;;;;;;112.20;52.00;;;25.80;2201.60;;;;;;5012601;28;20045;-88
2022/03/10 02:17:21;;;;;;;101.32;48.85;;;25.90;2201.60;;;;;;5016585;28;20076;-82
2022/03/10 02:19:51;;;;;;;101.57;53.40;;;25.90;2201.60;;;;;;5016679;28;20080;-79
2022/03/10 02:22:18;;;;;;;97.13;50.42;;;26.00;2201.60;;;;;;5017284;28;20076;-80
2022/03/10 02:24:44;;;;;;;94.90;47.72;;;26.20;2201.60;;;;;;5016663;28;20101;-80
2022/03/10 02:27:16;;;;;;;89.05;42.03;;;26.10;2201.60;;;;;;4996129;28;20068;-78
2022/03/10 02:29:43;;;;;;;79.03;41.17;;;26.10;2201.60;;;;;;5014765;28;20041;-79
2022/03/10 02:32:10;;;;;;;61.78;33.13;;;26.20;2201.60;;;;;;5016118;28;20030;-79
2022/03/10 02:34:37;;;;;;;56.78;28.35;;;26.10;2201.60;;;;;;5017782;28;20053;-79
2022/03/10 02:37:04;;;;;;;74.18;37.90;;;26.10;2201.60;;;;;;5015690;28;20026;-79
2022/03/10 02:39:29;;;;;;;79.35;36.88;;;26.10;2201.60;;;;;;5017694;28;20026;-79
2022/03/10 02:41:55;;;;;;;79.78;38.85;;;26.10;2201.60;;;;;;5018367;28;20052;-79
2022/03/10 02:44:22;;;;;;;79.40;37.70;;;26.10;2201.60;;;;;;5017084;28;20033;-80
2022/03/10 02:46:47;;;;;;;75.95;35.15;;;26.10;2201.60;;;;;;5017749;28;20073;-79
2022/03/10 02:49:13;;;;;;;66.95;34.03;;;26.20;2201.60;;;;;;5016591;28;20088;-80
2022/03/10 02:51:39;;;;;;;51.83;27.33;;;26.20;2201.60;;;;;;5014982;28;20478;-79
2022/03/10 02:54:05;;;;;;;53.65;30.10;;;26.10;2201.60;;;;;;5014743;28;20026;-79
2022/03/10 02:56:30;;;;;;;65.78;34.85;;;26.20;2201.60;;;;;;5013987;28;20026;-80
2022/03/10 02:58:56;;;;;;;63.35;32.20;;;26.20;2201.60;;;;;;5014197;28;20469;-80
2022/03/10 03:01:22;;;;;;;60.00;31.15;;;26.10;2201.60;;;;;;5014831;28;20030;-80
2022/03/10 03:03:48;;;;;;;55.95;30.83;;;26.10;2201.60;;;;;;5014559;28;20053;-79
2022/03/10 03:06:14;;;;;;;68.85;35.35;;;26.10;2201.60;;;;;;5015411;28;20092;-81
2022/03/10 03:08:39;;;;;;;56.63;29.42;;;26.10;2201.60;;;;;;5014140;28;20544;-80
2022/03/10 03:11:05;;;;;;;57.00;32.65;;;26.00;2201.60;;;;;;5015996;28;20078;-82
2022/03/10 03:13:31;;;;;;;64.13;35.35;;;26.00;2201.60;;;;;;5015685;28;20030;-82
2022/03/10 03:15:56;;;;;;;60.13;31.48;;;26.00;2201.60;;;;;;5015631;28;20477;-81
2022/03/10 03:18:22;;;;;;;71.50;36.03;;;26.00;2201.60;;;;;;5016362;28;20014;-80
2022/03/10 03:20:48;;;;;;;67.95;36.05;;;25.90;2201.60;;;;;;5015633;28;20034;-82
2022/03/10 03:23:14;;;;;;;60.25;33.13;;;26.00;2201.60;;;;;;5015209;28;20026;-81
2022/03/10 03:25:39;;;;;;;71.10;34.15;;;26.00;2201.60;;;;;;5015946;28;20018;-81
2022/03/10 03:28:05;;;;;;;81.40;39.50;;;26.00;2201.60;;;;;;5014480;28;20037;-82
2022/03/10 03:30:31;;;;;;;74.38;36.38;;;26.00;2201.60;;;;;;5014462;28;20136;-81
2022/03/10 03:32:56;;;;;;;79.32;38.78;;;26.00;2201.60;;;;;;5014422;28;20022;-79
2022/03/10 03:35:22;;;;;;;75.70;37.67;;;26.00;2201.60;;;;;;5015578;28;20033;-81
2022/03/10 03:37:48;;;;;;;75.93;38.70;;;26.00;2201.60;;;;;;5015426;28;20030;-81
2022/03/10 03:40:13;;;;;;;89.47;42.22;;;26.00;2201.60;;;;;;5014005;28;20029;-82
2022/03/10 03:42:39;;;;;;;95.40;45.22;;;26.00;2201.60;;;;;;5015460;28;20021;-81
2022/03/10 03:45:05;;;;;;;64.10;33.25;;;26.00;2201.60;;;;;;5014135;28;20029;-80
2022/03/10 03:47:31;;;;;;;97.93;45.72;;;26.00;2201.60;;;;;;5015113;28;20069;-81
2022/03/10 03:49:57;;;;;;;100.65;44.83;;;26.00;2201.60;;;;;;5014847;28;20064;-81
2022/03/10 03:52:23;;;;;;;110.55;47.72;;;25.90;2201.60;;;;;;5013824;28;20022;-81
2022/03/10 03:54:48;;;;;;;95.30;43.50;;;25.90;2201.60;;;;;;5013851;28;20030;-81
2022/03/10 03:57:14;;;;;;;107.75;46.00;;;25.90;2201.60;;;;;;5014379;28;20493;-81
2022/03/10 03:59:40;;;;;;;115.00;47.85;;;25.90;2201.60;;;;;;5013599;28;20022;-82
2022/03/10 04:02:05;;;;;;;110.90;46.55;;;25.90;2201.60;;;;;;5014955;28;20433;-81
2022/03/10 04:04:31;;;;;;;90.55;39.63;;;25.90;2201.60;;;;;;5014717;28;20022;-81
2022/03/10 04:06:57;;;;;;;122.05;52.53;;;25.90;2201.60;;;;;;5013281;28;20572;-81
2022/03/10 04:09:23;;;;;;;111.70;51.05;;;26.00;2201.60;;;;;;5014533;28;20114;-81
2022/03/10 04:11:50;;;;;;;130.43;53.22;;;26.00;2201.60;;;;;;5013020;28;20417;-81
2022/03/10 04:14:17;;;;;;;123.78;52.92;;;26.00;2201.60;;;;;;5013653;28;20057;-82
2022/03/10 04:16:42;;;;;;;124.35;51.05;;;26.00;2201.60;;;;;;5014792;28;20022;-81
2022/03/10 04:19:08;;;;;;;134.82;57.67;;;26.00;2201.60;;;;;;5013862;28;20068;-80
2022/03/10 04:21:34;;;;;;;135.73;54.15;;;26.00;2201.60;;;;;;5014822;28;20033;-81
2022/03/10 04:23:59;;;;;;;130.93;54.47;;;26.00;2201.60;;;;;;5014325;28;20097;-80
2022/03/10 04:26:25;;;;;;;131.68;52.97;;;26.00;2201.60;;;;;;5012862;28;20612;-80
2022/03/10 04:28:51;;;;;;;137.93;56.47;;;26.10;2201.60;;;;;;5013047;28;20026;-80
2022/03/10 04:31:17;;;;;;;119.47;52.03;;;26.20;2201.60;;;;;;5013218;28;20034;-80
2022/03/10 04:33:43;;;;;;;126.78;49.92;;;26.10;2201.60;;;;;;5012659;28;20022;-79
2022/03/10 04:36:08;;;;;;;120.00;48.30;;;26.00;2201.60;;;;;;5014081;28;20485;-80
2022/03/10 04:38:34;;;;;;;106.75;47.33;;;26.20;2201.60;;;;;;5014284;28;20037;-80
2022/03/10 04:41:00;;;;;;;104.25;45.85;;;26.20;2201.60;;;;;;5014076;28;20034;-79
2022/03/10 04:43:26;;;;;;;124.03;49.42;;;26.10;2201.60;;;;;;5013239;28;20493;-79
2022/03/10 04:45:51;;;;;;;128.57;53.97;;;26.10;2201.60;;;;;;5021210;28;20029;-80
2022/03/10 04:48:17;;;;;;;133.48;55.35;;;26.10;2201.60;;;;;;5019066;28;20042;-80
2022/03/10 04:50:43;;;;;;;138.73;56.17;;;26.00;2201.60;;;;;;5013897;28;20029;-79
2022/03/10 04:53:09;;;;;;;125.43;56.85;;;26.10;2201.60;;;;;;5013866;28;20022;-80
2022/03/10 04:55:35;;;;;;;147.20;68.70;;;26.10;2201.60;;;;;;5013902;28;20033;-79
2022/03/10 04:58:02;;;;;;;128.13;57.70;;;26.20;2201.60;;;;;;5013052;28;20081;-79
2022/03/10 05:00:28;;;;;;;170.95;71.53;;;26.10;2201.60;;;;;;5011023;28;20594;-81
2022/03/10 05:02:53;;;;;;;160.40;63.40;;;26.10;2201.60;;;;;;5041555;28;20030;-80
2022/03/10 05:05:19;;;;;;;137.82;57.10;;;26.20;2201.60;;;;;;5009785;28;20037;-79
2022/03/10 05:07:45;;;;;;;159.23;64.75;;;26.30;2201.60;;;;;;5015004;28;20057;-90
2022/03/10 05:10:13;;;;;;;129.73;59.53;;;26.30;2201.60;;;;;;5012714;28;20030;-78
2022/03/10 05:12:48;;;;;;;201.30;84.20;;;26.30;2201.60;;;;;;5002437;28;20056;-86
2022/03/10 05:15:18;;;;;;;205.38;83.13;;;26.20;2201.60;;;;;;5013473;28;20022;-85
2022/03/10 05:17:44;;;;;;;128.93;59.42;;;26.20;2201.60;;;;;;5012226;28;20021;-86
2022/03/10 05:20:10;;;;;;;149.88;61.78;;;26.20;2201.60;;;;;;5012494;28;20156;-87
2022/03/10 05:22:50;;;;;;;162.25;69.50;;;26.20;2201.60;;;;;;5008950;28;20053;-89
2022/03/10 05:25:17;;;;;;;150.88;65.03;;;26.10;2201.60;;;;;;5011121;28;20030;-85
2022/03/10 05:27:44;;;;;;;172.65;76.18;;;26.10;2201.60;;;;;;5018145;28;20030;-84
2022/03/10 05:30:11;;;;;;;137.32;64.22;;;26.10;2201.60;;;;;;5010490;28;20145;-87
2022/03/10 05:32:37;;;;;;;169.85;80.45;;;26.20;2201.60;;;;;;5014057;28;20025;-90
2022/03/10 05:35:04;;;;;;;141.60;57.97;;;26.20;2201.60;;;;;;5015464;28;20022;-88
2022/03/10 05:37:30;;;;;;;138.90;68.95;;;26.10;2201.60;;;;;;5012483;28;20021;-88
2022/03/10 05:39:56;;;;;;;123.82;55.10;;;26.20;2201.60;;;;;;5012674;28;20523;-87
2022/03/10 05:42:22;;;;;;;154.73;67.65;;;26.10;2201.60;;;;;;5008279;28;20018;-85
2022/03/10 05:44:48;;;;;;;145.90;69.07;;;26.20;2201.60;;;;;;5013411;28;20501;-85
2022/03/10 05:47:14;;;;;;;136.95;57.13;;;26.20;2201.60;;;;;;5000703;28;20052;-86
2022/03/10 05:49:40;;;;;;;132.05;60.65;;;26.20;2201.60;;;;;;5010914;28;20465;-86
2022/03/10 05:52:05;;;;;;;92.20;44.53;;;26.30;2201.60;;;;;;5002524;28;20034;-80
2022/03/10 05:54:32;;;;;;;58.03;33.22;;;26.30;2201.60;;;;;;5012437;28;20026;-83
2022/03/10 05:56:58;;;;;;;50.83;23.95;;;26.10;2201.60;;;;;;5006879;28;20066;-81
2022/03/10 05:59:23;;;;;;;24.13;12.02;;;26.10;2201.60;;;;;;5043625;28;20022;-82
2022/03/10 06:01:49;;;;;;;38.67;20.45;;;26.00;1996.80;;;;;;4998472;28;20018;-85
2022/03/10 06:04:16;;;;;;;29.95;18.15;;;26.10;2176.00;;;;;;5011135;28;20037;-84
2022/03/10 06:06:45;;;;;;;36.03;19.10;;;26.10;2150.40;;;;;;5009855;28;20041;-86
2022/03/10 06:09:11;;;;;;;42.10;23.95;;;26.30;2201.60;;;;;;5044375;28;20030;-83
2022/03/10 06:11:37;;;;;;;42.80;23.85;;;26.30;2201.60;;;;;;5011352;28;20014;-85
2022/03/10 06:14:03;;;;;;;34.38;19.45;;;26.30;2150.40;;;;;;5010895;28;20026;-84
2022/03/10 06:16:29;;;;;;;14.70;10.60;;;26.30;1945.60;;;;;;5043061;28;20032;-85
2022/03/10 06:18:55;;;;;;;26.15;15.68;;;26.30;2201.60;;;;;;5010199;28;20113;-83
2022/03/10 06:21:22;;;;;;;15.07;10.05;;;26.20;2201.60;;;;;;5011831;28;20052;-84
2022/03/10 06:23:48;;;;;;;28.25;14.57;;;26.10;2201.60;;;;;;5010382;28;20026;-82
2022/03/10 06:26:14;;;;;;;9.38;5.53;;;26.20;2201.60;;;;;;5011012;28;20041;-85
2022/03/10 06:28:40;;;;;;;24.08;14.98;;;26.10;2201.60;;;;;;5010820;28;20493;-83
2022/03/10 06:31:07;;;;;;;27.77;18.08;;;26.10;1945.60;;;;;;5010024;28;20714;-84
2022/03/10 06:33:33;;;;;;;20.70;10.30;;;26.10;1868.80;;;;;;5011246;28;20029;-85
2022/03/10 06:35:59;;;;;;;27.90;18.27;;;25.90;2073.60;;;;;;5010285;28;20021;-84
2022/03/10 06:38:25;;;;;;;34.35;16.92;;;25.90;2176.00;;;;;;5011062;28;20030;-89
2022/03/10 06:40:50;;;;;;;35.53;22.50;;;25.80;2176.00;;;;;;4994169;28;20034;-82
2022/03/10 06:43:18;;;;;;;27.35;17.67;;;25.80;2201.60;;;;;;5010847;28;20101;-82
2022/03/10 06:45:44;;;;;;;36.97;21.52;;;25.90;2201.60;;;;;;5010778;28;20033;-82
2022/03/10 06:48:10;;;;;;;36.55;23.27;;;26.10;2201.60;;;;;;5009229;28;20141;-80
2022/03/10 06:50:37;;;;;;;42.25;27.17;;;26.20;2201.60;;;;;;5008737;28;20093;-81
2022/03/10 06:53:03;;;;;;;39.55;23.48;;;26.30;2201.60;;;;;;5004810;28;20338;-81
2022/03/10 06:55:29;;;;;;;65.25;37.97;;;26.20;2201.60;;;;;;5012041;28;20499;-81
2022/03/10 06:57:55;;;;;;;56.38;32.90;;;26.40;2201.60;;;;;;5011147;28;20065;-81
2022/03/10 07:00:22;;;;;;;58.08;33.17;;;26.50;2201.60;;;;;;5012387;28;20461;-83
2022/03/10 07:02:49;;;;;;;55.10;33.00;;;51.20;2227.20;;;;;;5013868;28;20030;-84
2022/03/10 07:05:15;;;;;;;53.72;33.95;;;51.30;2227.20;;;;;;5010827;28;20412;-86
2022/03/10 07:07:40;;;;;;;54.15;37.25;;;51.40;2227.20;;;;;;5014431;28;20057;-81
2022/03/10 07:10:07;;;;;;;72.00;42.13;;;51.50;2227.20;;;;;;5014763;28;20026;-83
2022/03/10 07:12:38;;;;;;;72.68;44.92;;;51.70;2227.20;;;;;;5015208;28;20429;-84
2022/03/10 07:15:05;;;;;;;72.15;46.00;;;51.70;2227.20;;;;;;5015893;28;20092;-83
2022/03/10 07:17:31;;;;;;;81.70;51.72;;;52.00;2227.20;;;;;;5016183;28;20199;-82
2022/03/10 07:19:57;;;;;;;61.88;32.13;;;52.00;2227.20;;;;;;5014110;28;20109;-83
2022/03/10 07:22:23;;;;;;;63.75;38.67;;;51.80;2227.20;;;;;;5015595;28;20149;-81
2022/03/10 07:24:49;;;;;;;65.82;39.28;;;51.80;1894.40;;;;;;5014063;28;20034;-81
2022/03/10 07:27:15;;;;;;;73.88;47.20;;;51.80;1920.00;;;;;;5014376;28;20129;-81
2022/03/10 07:29:40;;;;;;;64.20;38.25;;;51.90;2099.20;;;;;;5015687;28;20084;-81
2022/03/10 07:32:07;;;;;;;54.15;34.20;;;52.00;1996.80;;;;;;5014316;28;20371;-82
2022/03/10 07:34:32;;;;;;;34.30;22.27;;;51.90;2227.20;;;;;;5015473;28;20596;-81
2022/03/10 07:36:58;;;;;;;24.10;15.43;;;51.80;2227.20;;;;;;5014838;28;20018;-83
2022/03/10 07:39:24;;;;;;;23.75;16.10;;;51.50;2227.20;;;;;;5016107;28;20029;-83
2022/03/10 07:41:50;;;;;;;31.33;20.35;;;51.50;2227.20;;;;;;5014250;28;20457;-83
2022/03/10 07:44:15;;;;;;;36.55;25.00;;;51.70;2227.20;;;;;;5014191;28;20117;-83
2022/03/10 07:46:41;;;;;;;36.33;23.70;;;51.70;2227.20;;;;;;5015172;28;20496;-83
2022/03/10 07:49:08;;;;;;;51.80;30.10;;;51.70;2227.20;;;;;;5015341;28;20076;-82
2022/03/10 07:51:34;;;;;;;38.72;23.92;;;51.80;2227.20;;;;;;5015100;28;20022;-82
2022/03/10 07:54:00;;;;;;;38.17;23.55;;;51.70;2227.20;;;;;;5015191;28;20026;-83
2022/03/10 07:56:26;;;;;;;42.78;20.65;;;51.70;2227.20;;;;;;5015076;28;20041;-82
2022/03/10 07:58:52;;;;;;;42.58;23.77;;;51.70;2227.20;;;;;;5014965;28;20529;-82
2022/03/10 08:01:18;;;;;;;37.42;22.95;;;51.70;2227.20;;;;;;5015141;28;20030;-82
2022/03/10 08:03:46;;;;;;;53.80;28.50;;;51.70;2227.20;;;;;;5014738;28;20067;-82
2022/03/10 08:06:13;;;;;;;50.30;29.77;;;51.90;2227.20;;;;;;5013707;28;20061;-82
2022/03/10 08:08:39;;;;;;;44.33;26.35;;;51.80;2227.20;;;;;;5014794;28;20100;-82
2022/03/10 08:11:05;;;;;;;36.95;24.83;;;51.70;2227.20;;;;;;5014849;28;20104;-82
2022/03/10 08:13:32;;;;;;;47.38;30.17;;;51.60;2227.20;;;;;;5014174;28;20029;-82
2022/03/10 08:15:58;;;;;;;36.88;24.00;;;51.70;2227.20;;;;;;5014710;28;20029;-82
2022/03/10 08:18:24;;;;;;;33.85;19.90;;;51.70;2227.20;;;;;;5014841;28;20028;-83
2022/03/10 08:20:50;;;;;;;31.65;18.55;;;51.70;2227.20;;;;;;5014752;28;20022;-84
2022/03/10 08:23:18;;;;;;;28.30;19.27;;;51.70;2227.20;;;;;;5014753;28;20030;-82
2022/03/10 08:25:45;;;;;;;35.38;19.85;;;51.70;1843.20;;;;;;5015256;28;20501;-82
2022/03/10 08:28:11;;;;;;;30.30;20.13;;;51.80;2227.20;;;;;;5013419;28;20485;-82
2022/03/10 08:30:38;;;;;;;25.67;17.95;;;51.80;2227.20;;;;;;5014582;28;20073;-82
2022/03/10 08:33:04;;;;;;;26.23;16.40;;;52.00;2227.20;;;;;;5014308;28;20029;-80
2022/03/10 08:35:30;;;;;;;26.33;18.25;;;51.90;1843.20;;;;;;5014186;28;20465;-81
2022/03/10 08:37:57;;;;;;;25.55;17.58;;;51.80;1945.60;;;;;;5013247;28;20109;-82
2022/03/10 08:40:22;;;;;;;23.25;15.02;;;51.80;2227.20;;;;;;5014309;28;20021;-82
2022/03/10 08:42:49;;;;;;;20.48;14.35;;;51.90;2227.20;;;;;;5013210;28;20072;-81
2022/03/10 08:45:16;;;;;;;27.73;16.85;;;51.70;2227.20;;;;;;5016433;28;20014;-82
2022/03/10 08:47:42;;;;;;;22.75;15.50;;;51.70;2227.20;;;;;;5014252;28;20040;-83
2022/03/10 08:50:09;;;;;;;77.43;56.25;;;51.80;2176.00;;;;;;5014026;28;20103;-81
2022/03/10 08:52:35;;;;;;;26.20;18.70;;;51.90;2227.20;;;;;;5014146;28;20055;-80
2022/03/10 08:55:03;;;;;;;37.63;25.38;;;52.10;2227.20;;;;;;5013398;28;20026;-80
2022/03/10 08:57:29;;;;;;;37.50;23.75;;;76.80;2227.20;;;;;;5013752;28;20080;-80
2022/03/10 08:59:55;;;;;;;36.63;24.80;;;76.90;1920.00;;;;;;5012770;28;20026;-80
2022/03/10 09:02:20;;;;;;;55.75;29.58;;;76.90;2227.20;;;;;;5013640;28;20030;-80
2022/03/10 09:04:46;;;;;;;49.10;31.38;;;77.00;2227.20;;;;;;5013429;28;20100;-80
2022/03/10 09:07:12;;;;;;;38.03;20.77;;;77.00;2227.20;;;;;;5012508;28;20104;-80
2022/03/10 09:09:38;;;;;;;36.63;21.45;;;77.10;2227.20;;;;;;5013713;28;20422;-80
2022/03/10 09:12:04;;;;;;;32.53;19.52;;;77.10;2227.20;;;;;;5013558;28;20049;-80
2022/03/10 09:14:30;;;;;;;32.85;18.60;;;76.80;2227.20;;;;;;5014028;28;20523;-82
2022/03/10 09:16:56;;;;;;;31.48;18.42;;;52.00;2227.20;;;;;;5013351;28;20026;-80
2022/03/10 09:19:23;;;;;;;28.25;17.88;;;52.10;2227.20;;;;;;5012404;28;20954;-81
2022/03/10 09:21:48;;;;;;;34.53;22.73;;;52.00;2227.20;;;;;;5013326;28;20045;-82
2022/03/10 09:24:15;;;;;;;34.10;23.35;;;52.00;2227.20;;;;;;5013181;28;20062;-81
2022/03/10 09:26:41;;;;;;;31.33;20.10;;;76.80;2227.20;;;;;;5013463;28;20033;-81
2022/03/10 09:29:07;;;;;;;28.70;18.40;;;52.10;2227.20;;;;;;5012464;28;20037;-81
2022/03/10 09:31:33;;;;;;;33.67;21.67;;;51.70;2227.20;;;;;;5013576;28;20072;-82
2022/03/10 09:33:58;;;;;;;36.92;24.75;;;51.80;2227.20;;;;;;5012494;28;20026;-82
2022/03/10 09:36:27;;;;;;;30.42;21.77;;;51.70;2227.20;;;;;;5012388;28;20037;-81
2022/03/10 09:38:53;;;;;;;40.83;25.30;;;51.70;2227.20;;;;;;5013103;28;20044;-84
2022/03/10 09:41:19;;;;;;;31.90;20.80;;;51.80;2227.20;;;;;;5012088;28;20034;-82
2022/03/10 09:43:46;;;;;;;27.65;17.92;;;51.80;2227.20;;;;;;5013054;28;20037;-83
2022/03/10 09:46:12;;;;;;;27.83;17.73;;;51.60;2227.20;;;;;;5012810;28;20072;-86
2022/03/10 09:48:39;;;;;;;32.72;20.75;;;51.60;2227.20;;;;;;5013220;28;20026;-81
2022/03/10 09:51:06;;;;;;;28.75;18.35;;;51.40;2227.20;;;;;;5013001;28;20030;-83
2022/03/10 09:53:34;;;;;;;30.58;20.67;;;51.50;2227.20;;;;;;5012870;28;20025;-81
2022/03/10 09:56:02;;;;;;;18.38;12.90;;;52.00;2227.20;;;;;;5013276;28;20049;-83
2022/03/10 09:58:27;;;;;;;15.85;11.20;;;51.70;2227.20;;;;;;5013697;28;20021;-84
2022/03/10 10:01:01;;;;;;;29.27;16.25;;;51.70;2227.20;;;;;;5011250;28;20379;-81
2022/03/10 10:03:27;;;;;;;13.57;9.52;;;52.00;2227.20;;;;;;5012817;28;20061;-83
2022/03/10 10:06:03;;;;;;;20.90;12.20;;;51.90;2227.20;;;;;;5012504;28;20030;-81
2022/03/10 10:08:34;;;;;;;15.25;8.57;;;52.00;2227.20;;;;;;5012900;28;20034;-79
2022/03/10 10:11:01;;;;;;;13.52;9.55;;;76.80;2227.20;;;;;;5011689;28;20030;-81
2022/03/10 10:13:37;;;;;;;13.95;9.30;;;51.90;2227.20;;;;;;5011578;28;20033;-81
2022/03/10 10:16:10;;;;;;;17.08;11.20;;;51.90;2227.20;;;;;;5011619;28;20362;-82
2022/03/10 10:18:37;;;;;;;16.27;10.82;;;51.90;2227.20;;;;;;5012708;28;20096;-83
2022/03/10 10:21:05;;;;;;;20.45;13.98;;;51.90;2227.20;;;;;;5011614;28;20452;-82
2022/03/10 10:23:36;;;;;;;20.02;11.55;;;52.00;2227.20;;;;;;5012755;28;20026;-82
2022/03/10 10:26:12;;;;;;;24.52;14.80;;;52.10;2227.20;;;;;;5011930;28;20025;-78
2022/03/10 10:28:40;;;;;;;14.63;9.52;;;76.90;2227.20;;;;;;5010691;28;20338;-77
2022/03/10 10:31:15;;;;;;;18.08;12.82;;;76.80;2227.20;;;;;;5010713;28;20098;-79
2022/03/10 10:33:43;;;;;;;18.23;11.27;;;51.90;2227.20;;;;;;5011732;28;20018;-78
2022/03/10 10:36:24;;;;;;;20.08;13.15;;;51.90;2227.20;;;;;;5011606;28;20034;-81
2022/03/10 10:39:11;;;;;;;27.75;16.88;;;51.70;2227.20;;;;;;5014819;28;20112;-82
2022/03/10 10:41:39;;;;;;;18.23;12.15;;;51.90;2227.20;;;;;;5013752;28;20134;-78
2022/03/10 10:44:07;;;;;;;26.10;14.30;;;52.00;2227.20;;;;;;5014913;28;20464;-80
2022/03/10 10:46:59;;;;;;;24.70;16.23;;;51.90;2227.20;;;;;;5015774;28;20030;-81
2022/03/10 10:49:25;;;;;;;20.55;13.73;;;51.90;2227.20;;;;;;5014509;28;20077;-79
2022/03/10 10:51:53;;;;;;;18.48;11.60;;;51.90;2227.20;;;;;;5015305;28;20057;-80
2022/03/10 10:54:21;;;;;;;20.85;14.85;;;51.90;2227.20;;;;;;5011476;28;20048;-85
2022/03/10 10:56:53;;;;;;;17.83;10.75;;;52.00;2227.20;;;;;;5012894;28;20493;-83
2022/03/10 10:59:39;;;;;;;21.65;14.13;;;52.00;2227.20;;;;;;5015634;28;20033;-77
2022/03/10 11:02:12;;;;;;;24.00;13.45;;;76.90;2227.20;;;;;;5015487;28;20093;-78
2022/03/10 11:04:43;;;;;;;26.02;15.15;;;76.90;2227.20;;;;;;5014972;28;20028;-79
2022/03/10 11:07:11;;;;;;;22.00;13.10;;;77.10;2227.20;;;;;;5014054;28;20041;-77
2022/03/10 11:09:39;;;;;;;21.73;14.30;;;77.20;2227.20;;;;;;5015104;28;20033;-77
2022/03/10 11:12:05;;;;;;;22.55;14.45;;;77.30;2227.20;;;;;;5013738;28;20057;-77
2022/03/10 11:14:31;;;;;;;24.33;15.73;;;77.50;2227.20;;;;;;5013712;28;20109;-78
2022/03/10 11:16:58;;;;;;;19.65;13.40;;;77.60;2227.20;;;;;;5014890;28;20122;-78
2022/03/10 11:19:26;;;;;;;18.63;12.43;;;77.50;2227.20;;;;;;5013269;28;20421;-77
2022/03/10 11:22:07;;;;;;;13.52;8.77;;;77.60;2227.20;;;;;;5013377;28;20033;-77
2022/03/10 11:24:39;;;;;;;17.80;10.68;;;77.30;2099.20;;;;;;5013084;28;20072;-76
2022/03/10 11:27:12;;;;;;;16.58;10.68;;;77.20;2124.80;;;;;;5014603;28;20052;-76
2022/03/10 11:29:40;;;;;;;15.82;10.60;;;77.20;2099.20;;;;;;5013667;28;20544;-77
2022/03/10 11:32:09;;;;;;;17.70;9.63;;;77.10;2176.00;;;;;;5011923;28;20025;-79
2022/03/10 11:34:48;;;;;;;19.38;11.95;;;77.10;2150.40;;;;;;5013857;28;20054;-76
2022/03/10 11:37:36;;;;;;;18.27;10.75;;;77.20;2227.20;;;;;;5012708;28;20040;-80
2022/03/10 11:40:04;;;;;;;25.58;16.20;;;77.20;2201.60;;;;;;5014535;28;20101;-78
2022/03/10 11:42:32;;;;;;;22.83;16.80;;;77.50;2227.20;;;;;;5014495;28;20084;-78
2022/03/10 11:45:20;;;;;;;30.80;18.55;;;77.70;2227.20;;;;;;5014256;28;20033;-78
2022/03/10 11:47:48;;;;;;;23.70;10.68;;;77.70;2227.20;;;;;;5013639;28;20034;-77
2022/03/10 11:50:23;;;;;;;26.90;12.18;;;77.60;2227.20;;;;;;5014237;28;20057;-78
2022/03/10 11:53:04;;;;;;;20.40;12.57;;;77.60;2150.40;;;;;;5012777;28;20045;-79
2022/03/10 11:55:56;;;;;;;17.88;10.88;;;77.60;2227.20;;;;;;5012815;28;20026;-79
2022/03/10 11:58:36;;;;;;;17.35;9.77;;;102.40;2176.00;;;;;;5011562;28;20037;-76
2022/03/10 12:01:03;;;;;;;19.13;11.93;;;77.60;2201.60;;;;;;5009593;28;20033;-78
2022/03/10 12:03:36;;;;;;;37.65;22.60;;;77.70;2227.20;;;;;;5008604;28;20033;-77
2022/03/10 12:06:06;;;;;;;20.58;11.10;;;102.50;2227.20;;;;;;5012239;28;20056;-77
2022/03/10 12:08:37;;;;;;;20.75;10.75;;;102.40;2099.20;;;;;;5012423;28;20489;-78
2022/03/10 12:11:20;;;;;;;17.85;10.95;;;102.40;2201.60;;;;;;5013442;28;20715;-79